sensor_id;sensor_type;location;lat;lon;timestamp;P1;durP1;ratioP1;P2;durP2;ratioP2
2313;SDS011;42279;51.388;7.000;2023-03-15T00:02:07;2.33;;;2.23;;
2313;SDS011;42279;51.388;7.000;2023-03-15T00:04:33;5.83;;;2.17;;
2313;SDS011;42279;51.388;7.000;2023-03-15T00:07:01;16.52;;;2.95;;
2313;SDS011;42279;51.388;7.000;2023-03-15T00:09:27;8.23;;;2.42;;
2313;SDS011;42279;51.388;7.000;2023-03-15T00:11:53;4.90;;;2.05;;
2313;SDS011;42279;51.388;7.000;2023-03-15T00:14:19;3.20;;;2.63;;
2313;SDS011;42279;51.388;7.000;2023-03-15T00:16:45;1.00;;;1.00;;
2313;SDS011;42279;51.388;7.000;2023-03-15T00:19:12;7.70;;;3.43;;
2313;SDS011;42279;51.388;7.000;2023-03-15T00:21:38;5.50;;;2.70;;
2313;SDS011;42279;51.388;7.000;2023-03-15T00:24:07;4.13;;;3.10;;
2313;SDS011;42279;51.388;7.000;2023-03-15T00:26:33;4.10;;;2.13;;
2313;SDS011;42279;51.388;7.000;2023-03-15T00:28:59;6.57;;;3.80;;
2313;SDS011;42279;51.388;7.000;2023-03-15T00:31:25;5.90;;;2.50;;
2313;SDS011;42279;51.388;7.000;2023-03-15T00:33:51;7.00;;;3.30;;
2313;SDS011;42279;51.388;7.000;2023-03-15T00:36:19;3.80;;;3.50;;
2313;SDS011;42279;51.388;7.000;2023-03-15T00:38:48;3.25;;;2.95;;
2313;SDS011;42279;51.388;7.000;2023-03-15T00:41:15;5.27;;;4.87;;
2313;SDS011;42279;51.388;7.000;2023-03-15T00:43:43;4.33;;;3.97;;
2313;SDS011;42279;51.388;7.000;2023-03-15T00:46:09;4.70;;;4.33;;
2313;SDS011;42279;51.388;7.000;2023-03-15T00:48:35;13.30;;;5.17;;
2313;SDS011;42279;51.388;7.000;2023-03-15T00:53:28;7.33;;;5.70;;
2313;SDS011;42279;51.388;7.000;2023-03-15T00:55:54;6.57;;;6.13;;
2313;SDS011;42279;51.388;7.000;2023-03-15T00:58:20;4.57;;;4.27;;
2313;SDS011;42279;51.388;7.000;2023-03-15T01:00:46;6.97;;;4.97;;
2313;SDS011;42279;51.388;7.000;2023-03-15T01:03:12;5.07;;;4.88;;
2313;SDS011;42279;51.388;7.000;2023-03-15T01:05:39;6.93;;;5.50;;
2313;SDS011;42279;51.388;7.000;2023-03-15T01:08:05;6.93;;;6.22;;
2313;SDS011;42279;51.388;7.000;2023-03-15T01:10:33;5.30;;;4.90;;
2313;SDS011;42279;51.388;7.000;2023-03-15T01:12:59;7.97;;;7.22;;
2313;SDS011;42279;51.388;7.000;2023-03-15T01:15:25;9.90;;;6.03;;
2313;SDS011;42279;51.388;7.000;2023-03-15T01:17:52;6.80;;;6.20;;
2313;SDS011;42279;51.388;7.000;2023-03-15T01:20:18;8.23;;;6.47;;
2313;SDS011;42279;51.388;7.000;2023-03-15T01:22:44;6.38;;;5.32;;
2313;SDS011;42279;51.388;7.000;2023-03-15T01:25:10;6.27;;;5.77;;
2313;SDS011;42279;51.388;7.000;2023-03-15T01:27:36;7.05;;;6.53;;
2313;SDS011;42279;51.388;7.000;2023-03-15T01:30:03;8.50;;;5.45;;
2313;SDS011;42279;51.388;7.000;2023-03-15T01:32:29;12.30;;;6.88;;
2313;SDS011;42279;51.388;7.000;2023-03-15T01:34:55;6.90;;;6.37;;
2313;SDS011;42279;51.388;7.000;2023-03-15T01:37:21;6.68;;;5.05;;
2313;SDS011;42279;51.388;7.000;2023-03-15T01:39:48;8.10;;;7.40;;
2313;SDS011;42279;51.388;7.000;2023-03-15T01:42:15;8.47;;;7.40;;
2313;SDS011;42279;51.388;7.000;2023-03-15T01:44:48;8.80;;;7.38;;
2313;SDS011;42279;51.388;7.000;2023-03-15T01:47:15;10.23;;;8.15;;
2313;SDS011;42279;51.388;7.000;2023-03-15T01:49:41;8.07;;;7.30;;
2313;SDS011;42279;51.388;7.000;2023-03-15T01:52:12;10.40;;;6.90;;
2313;SDS011;42279;51.388;7.000;2023-03-15T01:54:41;13.55;;;9.70;;
2313;SDS011;42279;51.388;7.000;2023-03-15T01:57:30;15.82;;;11.85;;
2313;SDS011;42279;51.388;7.000;2023-03-15T01:59:58;13.75;;;11.25;;
2313;SDS011;42279;51.388;7.000;2023-03-15T02:02:29;15.55;;;10.77;;
2313;SDS011;42279;51.388;7.000;2023-03-15T02:05:00;12.52;;;9.02;;
2313;SDS011;42279;51.388;7.000;2023-03-15T02:07:29;10.90;;;9.18;;
2313;SDS011;42279;51.388;7.000;2023-03-15T02:12:32;10.40;;;8.68;;
2313;SDS011;42279;51.388;7.000;2023-03-15T02:14:59;11.00;;;6.00;;
2313;SDS011;42279;51.388;7.000;2023-03-15T02:17:28;9.40;;;7.80;;
2313;SDS011;42279;51.388;7.000;2023-03-15T02:27:31;6.00;;;5.45;;
2313;SDS011;42279;51.388;7.000;2023-03-15T02:30:02;6.43;;;5.93;;
2313;SDS011;42279;51.388;7.000;2023-03-15T02:32:29;10.13;;;6.10;;
2313;SDS011;42279;51.388;7.000;2023-03-15T02:34:55;5.18;;;4.88;;
2313;SDS011;42279;51.388;7.000;2023-03-15T02:37:21;5.93;;;5.53;;
2313;SDS011;42279;51.388;7.000;2023-03-15T02:39:47;6.00;;;5.40;;
2313;SDS011;42279;51.388;7.000;2023-03-15T02:42:13;6.30;;;5.80;;
2313;SDS011;42279;51.388;7.000;2023-03-15T02:44:40;6.38;;;5.82;;
2313;SDS011;42279;51.388;7.000;2023-03-15T02:47:09;7.95;;;6.53;;
2313;SDS011;42279;51.388;7.000;2023-03-15T02:49:36;7.85;;;7.10;;
2313;SDS011;42279;51.388;7.000;2023-03-15T02:52:04;10.07;;;7.63;;
2313;SDS011;42279;51.388;7.000;2023-03-15T02:54:30;7.90;;;6.65;;
2313;SDS011;42279;51.388;7.000;2023-03-15T02:56:58;6.90;;;6.30;;
2313;SDS011;42279;51.388;7.000;2023-03-15T02:59:25;9.30;;;8.40;;
2313;SDS011;42279;51.388;7.000;2023-03-15T03:01:51;11.70;;;8.20;;
2313;SDS011;42279;51.388;7.000;2023-03-15T03:04:17;10.43;;;9.40;;
2313;SDS011;42279;51.388;7.000;2023-03-15T03:06:43;8.25;;;7.32;;
2313;SDS011;42279;51.388;7.000;2023-03-15T03:09:09;11.97;;;8.17;;
2313;SDS011;42279;51.388;7.000;2023-03-15T03:11:39;10.68;;;9.10;;
2313;SDS011;42279;51.388;7.000;2023-03-15T03:14:05;9.13;;;8.23;;
2313;SDS011;42279;51.388;7.000;2023-03-15T03:16:31;10.47;;;8.87;;
2313;SDS011;42279;51.388;7.000;2023-03-15T03:18:57;11.75;;;8.93;;
2313;SDS011;42279;51.388;7.000;2023-03-15T03:21:24;12.82;;;10.05;;
2313;SDS011;42279;51.388;7.000;2023-03-15T03:23:49;9.90;;;8.13;;
2313;SDS011;42279;51.388;7.000;2023-03-15T03:26:17;12.03;;;10.83;;
2313;SDS011;42279;51.388;7.000;2023-03-15T03:28:44;13.60;;;11.20;;
2313;SDS011;42279;51.388;7.000;2023-03-15T03:31:17;12.00;;;10.82;;
2313;SDS011;42279;51.388;7.000;2023-03-15T03:33:43;15.73;;;10.50;;
2313;SDS011;42279;51.388;7.000;2023-03-15T03:36:09;8.52;;;7.22;;
2313;SDS011;42279;51.388;7.000;2023-03-15T03:38:37;9.45;;;8.23;;
2313;SDS011;42279;51.388;7.000;2023-03-15T03:41:03;7.07;;;6.30;;
2313;SDS011;42279;51.388;7.000;2023-03-15T03:43:29;7.13;;;6.53;;
2313;SDS011;42279;51.388;7.000;2023-03-15T03:45:55;11.35;;;7.40;;
2313;SDS011;42279;51.388;7.000;2023-03-15T03:48:21;10.20;;;8.17;;
2313;SDS011;42279;51.388;7.000;2023-03-15T03:50:47;8.43;;;7.60;;
2313;SDS011;42279;51.388;7.000;2023-03-15T03:53:13;7.10;;;6.40;;
2313;SDS011;42279;51.388;7.000;2023-03-15T03:55:39;7.73;;;5.87;;
2313;SDS011;42279;51.388;7.000;2023-03-15T03:58:06;7.05;;;6.35;;
2313;SDS011;42279;51.388;7.000;2023-03-15T04:00:32;5.43;;;5.00;;
2313;SDS011;42279;51.388;7.000;2023-03-15T04:02:58;13.43;;;7.37;;
2313;SDS011;42279;51.388;7.000;2023-03-15T04:05:26;6.30;;;5.80;;
2313;SDS011;42279;51.388;7.000;2023-03-15T04:07:52;5.50;;;5.00;;
2313;SDS011;42279;51.388;7.000;2023-03-15T04:10:18;6.10;;;5.63;;
2313;SDS011;42279;51.388;7.000;2023-03-15T04:12:51;4.43;;;3.67;;
2313;SDS011;42279;51.388;7.000;2023-03-15T04:15:17;4.05;;;3.53;;
2313;SDS011;42279;51.388;7.000;2023-03-15T04:17:43;6.13;;;4.35;;
2313;SDS011;42279;51.388;7.000;2023-03-15T04:20:10;5.20;;;4.68;;
2313;SDS011;42279;51.388;7.000;2023-03-15T04:22:37;5.97;;;4.95;;
2313;SDS011;42279;51.388;7.000;2023-03-15T04:25:03;4.73;;;4.33;;
2313;SDS011;42279;51.388;7.000;2023-03-15T04:27:29;4.82;;;4.43;;
2313;SDS011;42279;51.388;7.000;2023-03-15T04:29:55;4.30;;;4.10;;
2313;SDS011;42279;51.388;7.000;2023-03-15T04:32:21;4.82;;;4.50;;
2313;SDS011;42279;51.388;7.000;2023-03-15T04:34:47;5.37;;;4.93;;
2313;SDS011;42279;51.388;7.000;2023-03-15T04:37:16;6.28;;;5.88;;
2313;SDS011;42279;51.388;7.000;2023-03-15T04:39:42;5.95;;;5.45;;
2313;SDS011;42279;51.388;7.000;2023-03-15T04:42:08;5.60;;;5.20;;
2313;SDS011;42279;51.388;7.000;2023-03-15T04:44:34;6.68;;;6.18;;
2313;SDS011;42279;51.388;7.000;2023-03-15T04:47:01;6.22;;;5.65;;
2313;SDS011;42279;51.388;7.000;2023-03-15T04:49:27;5.87;;;5.40;;
2313;SDS011;42279;51.388;7.000;2023-03-15T04:51:53;6.35;;;5.32;;
2313;SDS011;42279;51.388;7.000;2023-03-15T04:54:19;7.20;;;6.33;;
2313;SDS011;42279;51.388;7.000;2023-03-15T04:56:45;7.53;;;6.78;;
2313;SDS011;42279;51.388;7.000;2023-03-15T04:59:11;7.70;;;6.90;;
2313;SDS011;42279;51.388;7.000;2023-03-15T05:01:37;7.13;;;6.47;;
2313;SDS011;42279;51.388;7.000;2023-03-15T05:04:03;7.97;;;6.60;;
2313;SDS011;42279;51.388;7.000;2023-03-15T05:06:29;8.40;;;7.60;;
2313;SDS011;42279;51.388;7.000;2023-03-15T05:08:55;8.20;;;7.50;;
2313;SDS011;42279;51.388;7.000;2023-03-15T05:11:24;7.78;;;7.03;;
2313;SDS011;42279;51.388;7.000;2023-03-15T05:13:50;8.18;;;7.57;;
2313;SDS011;42279;51.388;7.000;2023-03-15T05:16:17;8.75;;;7.95;;
2313;SDS011;42279;51.388;7.000;2023-03-15T05:18:43;8.70;;;7.38;;
2313;SDS011;42279;51.388;7.000;2023-03-15T05:21:09;8.63;;;7.43;;
2313;SDS011;42279;51.388;7.000;2023-03-15T05:23:36;8.82;;;7.93;;
2313;SDS011;42279;51.388;7.000;2023-03-15T05:26:03;8.50;;;7.05;;
2313;SDS011;42279;51.388;7.000;2023-03-15T05:28:29;10.77;;;8.10;;
2313;SDS011;42279;51.388;7.000;2023-03-15T05:30:56;8.15;;;7.35;;
2313;SDS011;42279;51.388;7.000;2023-03-15T05:33:22;8.40;;;7.70;;
2313;SDS011;42279;51.388;7.000;2023-03-15T05:35:48;8.98;;;7.55;;
2313;SDS011;42279;51.388;7.000;2023-03-15T05:38:17;7.57;;;6.95;;
2313;SDS011;42279;51.388;7.000;2023-03-15T05:40:43;9.48;;;8.55;;
2313;SDS011;42279;51.388;7.000;2023-03-15T05:43:09;10.15;;;8.35;;
2313;SDS011;42279;51.388;7.000;2023-03-15T05:45:35;8.67;;;6.70;;
2313;SDS011;42279;51.388;7.000;2023-03-15T05:48:01;9.23;;;8.32;;
2313;SDS011;42279;51.388;7.000;2023-03-15T05:50:28;11.45;;;8.88;;
2313;SDS011;42279;51.388;7.000;2023-03-15T05:52:54;12.02;;;9.30;;
2313;SDS011;42279;51.388;7.000;2023-03-15T05:55:21;12.43;;;10.82;;
2313;SDS011;42279;51.388;7.000;2023-03-15T05:57:46;11.57;;;9.47;;
2313;SDS011;42279;51.388;7.000;2023-03-15T06:00:13;11.67;;;9.20;;
2313;SDS011;42279;51.388;7.000;2023-03-15T06:02:40;10.15;;;8.68;;
2313;SDS011;42279;51.388;7.000;2023-03-15T06:05:06;12.10;;;9.45;;
2313;SDS011;42279;51.388;7.000;2023-03-15T06:07:33;12.20;;;8.90;;
2313;SDS011;42279;51.388;7.000;2023-03-15T06:09:59;14.93;;;11.50;;
2313;SDS011;42279;51.388;7.000;2023-03-15T06:12:25;15.43;;;12.03;;
2313;SDS011;42279;51.388;7.000;2023-03-15T06:14:51;13.90;;;9.90;;
2313;SDS011;42279;51.388;7.000;2023-03-15T06:17:17;13.67;;;10.40;;
2313;SDS011;42279;51.388;7.000;2023-03-15T06:19:43;14.13;;;11.40;;
2313;SDS011;42279;51.388;7.000;2023-03-15T06:22:09;14.93;;;12.37;;
2313;SDS011;42279;51.388;7.000;2023-03-15T06:24:35;18.38;;;12.63;;
2313;SDS011;42279;51.388;7.000;2023-03-15T06:27:01;17.50;;;11.80;;
2313;SDS011;42279;51.388;7.000;2023-03-15T06:29:27;21.63;;;15.10;;
2313;SDS011;42279;51.388;7.000;2023-03-15T06:31:53;20.42;;;14.98;;
2313;SDS011;42279;51.388;7.000;2023-03-15T06:34:19;22.90;;;14.85;;
2313;SDS011;42279;51.388;7.000;2023-03-15T06:36:45;18.55;;;12.90;;
2313;SDS011;42279;51.388;7.000;2023-03-15T06:39:12;27.83;;;16.20;;
2313;SDS011;42279;51.388;7.000;2023-03-15T06:41:38;21.58;;;13.40;;
2313;SDS011;42279;51.388;7.000;2023-03-15T06:44:05;17.50;;;14.07;;
2313;SDS011;42279;51.388;7.000;2023-03-15T06:46:31;19.50;;;12.80;;
2313;SDS011;42279;51.388;7.000;2023-03-15T06:48:57;19.83;;;13.43;;
2313;SDS011;42279;51.388;7.000;2023-03-15T06:51:23;25.50;;;16.17;;
2313;SDS011;42279;51.388;7.000;2023-03-15T06:53:49;27.50;;;15.10;;
2313;SDS011;42279;51.388;7.000;2023-03-15T06:56:15;17.30;;;11.20;;
2313;SDS011;42279;51.388;7.000;2023-03-15T06:58:41;20.87;;;12.10;;
2313;SDS011;42279;51.388;7.000;2023-03-15T07:01:10;16.67;;;10.70;;
2313;SDS011;42279;51.388;7.000;2023-03-15T07:03:36;24.40;;;16.30;;
2313;SDS011;42279;51.388;7.000;2023-03-15T07:06:02;19.45;;;14.05;;
2313;SDS011;42279;51.388;7.000;2023-03-15T07:08:28;21.17;;;13.85;;
2313;SDS011;42279;51.388;7.000;2023-03-15T07:10:54;18.08;;;12.15;;
2313;SDS011;42279;51.388;7.000;2023-03-15T07:13:21;18.13;;;13.35;;
2313;SDS011;42279;51.388;7.000;2023-03-15T07:15:53;21.00;;;15.03;;
2313;SDS011;42279;51.388;7.000;2023-03-15T07:18:20;24.38;;;15.27;;
2313;SDS011;42279;51.388;7.000;2023-03-15T07:20:46;19.45;;;12.43;;
2313;SDS011;42279;51.388;7.000;2023-03-15T07:23:12;18.67;;;11.77;;
2313;SDS011;42279;51.388;7.000;2023-03-15T07:25:38;18.67;;;11.00;;
2313;SDS011;42279;51.388;7.000;2023-03-15T07:28:04;16.10;;;12.63;;
2313;SDS011;42279;51.388;7.000;2023-03-15T07:30:30;19.25;;;13.98;;
2313;SDS011;42279;51.388;7.000;2023-03-15T07:32:56;17.40;;;13.30;;
2313;SDS011;42279;51.388;7.000;2023-03-15T07:35:24;16.77;;;13.63;;
2313;SDS011;42279;51.388;7.000;2023-03-15T07:37:51;17.57;;;12.53;;
2313;SDS011;42279;51.388;7.000;2023-03-15T07:40:17;15.53;;;13.00;;
2313;SDS011;42279;51.388;7.000;2023-03-15T07:42:43;17.88;;;13.32;;
2313;SDS011;42279;51.388;7.000;2023-03-15T07:45:09;17.52;;;12.80;;
2313;SDS011;42279;51.388;7.000;2023-03-15T07:47:39;15.63;;;12.37;;
2313;SDS011;42279;51.388;7.000;2023-03-15T07:50:21;20.67;;;13.50;;
2313;SDS011;42279;51.388;7.000;2023-03-15T07:52:48;19.33;;;14.38;;
2313;SDS011;42279;51.388;7.000;2023-03-15T07:55:15;16.30;;;10.80;;
2313;SDS011;42279;51.388;7.000;2023-03-15T07:57:41;19.23;;;12.60;;
2313;SDS011;42279;51.388;7.000;2023-03-15T08:00:07;18.07;;;12.43;;
2313;SDS011;42279;51.388;7.000;2023-03-15T08:02:37;21.95;;;12.98;;
2313;SDS011;42279;51.388;7.000;2023-03-15T08:05:04;16.57;;;12.33;;
2313;SDS011;42279;51.388;7.000;2023-03-15T08:07:30;22.45;;;14.93;;
2313;SDS011;42279;51.388;7.000;2023-03-15T08:09:56;18.73;;;12.88;;
2313;SDS011;42279;51.388;7.000;2023-03-15T08:12:23;20.03;;;14.23;;
2313;SDS011;42279;51.388;7.000;2023-03-15T08:14:49;16.43;;;11.97;;
2313;SDS011;42279;51.388;7.000;2023-03-15T08:17:15;16.60;;;13.27;;
2313;SDS011;42279;51.388;7.000;2023-03-15T08:19:41;18.60;;;14.27;;
2313;SDS011;42279;51.388;7.000;2023-03-15T08:22:07;21.67;;;13.73;;
2313;SDS011;42279;51.388;7.000;2023-03-15T08:24:33;14.47;;;11.10;;
2313;SDS011;42279;51.388;7.000;2023-03-15T08:26:59;20.90;;;14.90;;
2313;SDS011;42279;51.388;7.000;2023-03-15T08:29:38;17.83;;;13.90;;
2313;SDS011;42279;51.388;7.000;2023-03-15T08:32:04;20.23;;;14.73;;
2313;SDS011;42279;51.388;7.000;2023-03-15T08:34:32;25.33;;;14.23;;
2313;SDS011;42279;51.388;7.000;2023-03-15T08:36:58;20.67;;;13.47;;
2313;SDS011;42279;51.388;7.000;2023-03-15T08:39:25;22.63;;;15.67;;
2313;SDS011;42279;51.388;7.000;2023-03-15T08:41:51;22.70;;;14.70;;
2313;SDS011;42279;51.388;7.000;2023-03-15T08:44:17;20.63;;;15.37;;
2313;SDS011;42279;51.388;7.000;2023-03-15T08:46:43;17.30;;;12.17;;
2313;SDS011;42279;51.388;7.000;2023-03-15T08:49:09;17.33;;;13.87;;
2313;SDS011;42279;51.388;7.000;2023-03-15T08:51:35;24.77;;;12.97;;
2313;SDS011;42279;51.388;7.000;2023-03-15T08:54:01;19.80;;;14.77;;
2313;SDS011;42279;51.388;7.000;2023-03-15T08:56:28;18.80;;;13.23;;
2313;SDS011;42279;51.388;7.000;2023-03-15T08:58:54;17.03;;;13.17;;
2313;SDS011;42279;51.388;7.000;2023-03-15T09:01:20;16.40;;;12.97;;
2313;SDS011;42279;51.388;7.000;2023-03-15T09:03:46;15.43;;;12.50;;
2313;SDS011;42279;51.388;7.000;2023-03-15T09:06:12;19.73;;;12.20;;
2313;SDS011;42279;51.388;7.000;2023-03-15T09:08:38;16.80;;;12.77;;
2313;SDS011;42279;51.388;7.000;2023-03-15T09:11:05;17.60;;;12.50;;
2313;SDS011;42279;51.388;7.000;2023-03-15T09:13:31;12.67;;;10.20;;
2313;SDS011;42279;51.388;7.000;2023-03-15T09:15:57;12.37;;;11.10;;
2313;SDS011;42279;51.388;7.000;2023-03-15T09:18:24;14.57;;;11.77;;
2313;SDS011;42279;51.388;7.000;2023-03-15T09:20:50;15.37;;;11.60;;
2313;SDS011;42279;51.388;7.000;2023-03-15T09:23:16;22.53;;;11.73;;
2313;SDS011;42279;51.388;7.000;2023-03-15T09:25:42;10.53;;;9.57;;
2313;SDS011;42279;51.388;7.000;2023-03-15T09:28:08;13.27;;;9.53;;
2313;SDS011;42279;51.388;7.000;2023-03-15T09:30:35;10.20;;;8.40;;
2313;SDS011;42279;51.388;7.000;2023-03-15T09:33:02;10.63;;;9.57;;
2313;SDS011;42279;51.388;7.000;2023-03-15T09:35:28;9.33;;;8.40;;
2313;SDS011;42279;51.388;7.000;2023-03-15T09:37:54;6.90;;;6.30;;
2313;SDS011;42279;51.388;7.000;2023-03-15T09:40:27;12.20;;;6.20;;
2313;SDS011;42279;51.388;7.000;2023-03-15T09:45:27;8.63;;;7.77;;
2313;SDS011;42279;51.388;7.000;2023-03-15T09:48:15;8.10;;;7.53;;
2313;SDS011;42279;51.388;7.000;2023-03-15T09:50:44;8.53;;;7.90;;
2313;SDS011;42279;51.388;7.000;2023-03-15T09:53:13;8.37;;;7.67;;
2313;SDS011;42279;51.388;7.000;2023-03-15T09:55:41;7.20;;;6.67;;
2313;SDS011;42279;51.388;7.000;2023-03-15T09:58:10;7.77;;;7.00;;
2313;SDS011;42279;51.388;7.000;2023-03-15T10:03:11;8.77;;;7.47;;
2313;SDS011;42279;51.388;7.000;2023-03-15T10:05:42;8.13;;;7.27;;
2313;SDS011;42279;51.388;7.000;2023-03-15T10:08:10;13.03;;;7.87;;
2313;SDS011;42279;51.388;7.000;2023-03-15T10:10:37;8.17;;;6.80;;
2313;SDS011;42279;51.388;7.000;2023-03-15T10:13:53;8.60;;;7.70;;
2313;SDS011;42279;51.388;7.000;2023-03-15T10:15:58;7.90;;;5.87;;
2313;SDS011;42279;51.388;7.000;2023-03-15T10:18:35;6.20;;;5.70;;
2313;SDS011;42279;51.388;7.000;2023-03-15T10:21:05;8.47;;;7.60;;
2313;SDS011;42279;51.388;7.000;2023-03-15T10:23:42;7.83;;;5.90;;
2313;SDS011;42279;51.388;7.000;2023-03-15T10:26:10;7.90;;;6.37;;
2313;SDS011;42279;51.388;7.000;2023-03-15T10:28:39;14.37;;;5.93;;
2313;SDS011;42279;51.388;7.000;2023-03-15T10:31:10;6.87;;;6.17;;
2313;SDS011;42279;51.388;7.000;2023-03-15T10:33:38;7.13;;;6.43;;
2313;SDS011;42279;51.388;7.000;2023-03-15T10:36:13;8.97;;;7.07;;
2313;SDS011;42279;51.388;7.000;2023-03-15T10:38:40;6.30;;;5.00;;
2313;SDS011;42279;51.388;7.000;2023-03-15T10:41:06;9.50;;;5.97;;
2313;SDS011;42279;51.388;7.000;2023-03-15T10:43:33;8.50;;;6.00;;
2313;SDS011;42279;51.388;7.000;2023-03-15T10:48:34;4.80;;;4.40;;
2313;SDS011;42279;51.388;7.000;2023-03-15T10:51:14;5.97;;;5.07;;
2313;SDS011;42279;51.388;7.000;2023-03-15T10:54:22;5.60;;;4.53;;
2313;SDS011;42279;51.388;7.000;2023-03-15T10:56:30;4.53;;;4.13;;
2313;SDS011;42279;51.388;7.000;2023-03-15T10:58:59;4.70;;;4.40;;
2313;SDS011;42279;51.388;7.000;2023-03-15T11:01:29;5.37;;;4.97;;
2313;SDS011;42279;51.388;7.000;2023-03-15T11:06:27;5.73;;;5.23;;
2313;SDS011;42279;51.388;7.000;2023-03-15T11:08:53;8.73;;;5.80;;
2313;SDS011;42279;51.388;7.000;2023-03-15T11:11:47;6.40;;;5.83;;
2313;SDS011;42279;51.388;7.000;2023-03-15T11:14:13;5.80;;;5.47;;
2313;SDS011;42279;51.388;7.000;2023-03-15T11:16:39;8.07;;;4.53;;
2313;SDS011;42279;51.388;7.000;2023-03-15T11:19:10;5.90;;;5.10;;
2313;SDS011;42279;51.388;7.000;2023-03-15T11:21:36;9.50;;;6.30;;
2313;SDS011;42279;51.388;7.000;2023-03-15T11:24:03;6.80;;;6.33;;
2313;SDS011;42279;51.388;7.000;2023-03-15T11:26:37;6.07;;;5.57;;
2313;SDS011;42279;51.388;7.000;2023-03-15T11:31:36;4.10;;;4.00;;
2313;SDS011;42279;51.388;7.000;2023-03-15T11:37:14;5.03;;;4.73;;
2313;SDS011;42279;51.388;7.000;2023-03-15T11:40:00;5.33;;;4.90;;
2313;SDS011;42279;51.388;7.000;2023-03-15T11:42:32;5.57;;;5.17;;
2313;SDS011;42279;51.388;7.000;2023-03-15T11:45:04;6.27;;;5.97;;
2313;SDS011;42279;51.388;7.000;2023-03-15T11:47:45;6.07;;;5.60;;
2313;SDS011;42279;51.388;7.000;2023-03-15T11:50:13;5.70;;;5.30;;
2313;SDS011;42279;51.388;7.000;2023-03-15T11:52:40;5.13;;;4.63;;
2313;SDS011;42279;51.388;7.000;2023-03-15T11:55:14;5.50;;;5.00;;
2313;SDS011;42279;51.388;7.000;2023-03-15T11:57:45;6.13;;;5.10;;
2313;SDS011;42279;51.388;7.000;2023-03-15T12:03:28;4.87;;;4.47;;
2313;SDS011;42279;51.388;7.000;2023-03-15T12:05:59;5.33;;;4.60;;
2313;SDS011;42279;51.388;7.000;2023-03-15T12:11:00;4.10;;;3.90;;
2313;SDS011;42279;51.388;7.000;2023-03-15T12:13:29;5.40;;;4.90;;
2313;SDS011;42279;51.388;7.000;2023-03-15T12:15:56;4.37;;;4.07;;
2313;SDS011;42279;51.388;7.000;2023-03-15T12:18:26;12.87;;;5.30;;
2313;SDS011;42279;51.388;7.000;2023-03-15T12:23:58;4.93;;;3.50;;
2313;SDS011;42279;51.388;7.000;2023-03-15T12:29:20;5.80;;;3.73;;
2313;SDS011;42279;51.388;7.000;2023-03-15T12:31:51;5.63;;;4.30;;
2313;SDS011;42279;51.388;7.000;2023-03-15T12:34:26;5.00;;;3.53;;
2313;SDS011;42279;51.388;7.000;2023-03-15T12:36:54;3.70;;;3.50;;
2313;SDS011;42279;51.388;7.000;2023-03-15T12:39:35;3.10;;;3.00;;
2313;SDS011;42279;51.388;7.000;2023-03-15T12:42:02;4.27;;;3.40;;
2313;SDS011;42279;51.388;7.000;2023-03-15T12:47:01;5.13;;;3.20;;
2313;SDS011;42279;51.388;7.000;2023-03-15T12:49:30;8.07;;;4.57;;
2313;SDS011;42279;51.388;7.000;2023-03-15T12:51:58;6.10;;;3.27;;
2313;SDS011;42279;51.388;7.000;2023-03-15T12:54:29;4.07;;;3.67;;
2313;SDS011;42279;51.388;7.000;2023-03-15T12:56:56;2.70;;;2.60;;
2313;SDS011;42279;51.388;7.000;2023-03-15T12:59:26;2.57;;;2.33;;
2313;SDS011;42279;51.388;7.000;2023-03-15T13:01:54;2.50;;;2.30;;
2313;SDS011;42279;51.388;7.000;2023-03-15T13:04:20;2.80;;;2.70;;
2313;SDS011;42279;51.388;7.000;2023-03-15T13:06:52;5.93;;;2.20;;
2313;SDS011;42279;51.388;7.000;2023-03-15T13:12:07;2.80;;;2.10;;
2313;SDS011;42279;51.388;7.000;2023-03-15T13:17:54;1.80;;;1.70;;
2313;SDS011;42279;51.388;7.000;2023-03-15T13:25:30;2.70;;;2.20;;
2313;SDS011;42279;51.388;7.000;2023-03-15T13:28:00;1.37;;;1.37;;
2313;SDS011;42279;51.388;7.000;2023-03-15T13:30:34;4.30;;;2.20;;
2313;SDS011;42279;51.388;7.000;2023-03-15T13:33:19;6.50;;;4.37;;
2313;SDS011;42279;51.388;7.000;2023-03-15T13:40:57;5.00;;;1.63;;
2313;SDS011;42279;51.388;7.000;2023-03-15T13:43:25;3.57;;;2.20;;
2313;SDS011;42279;51.388;7.000;2023-03-15T13:45:51;2.60;;;2.50;;
2313;SDS011;42279;51.388;7.000;2023-03-15T13:48:18;4.23;;;1.97;;
2313;SDS011;42279;51.388;7.000;2023-03-15T13:50:47;2.87;;;2.00;;
2313;SDS011;42279;51.388;7.000;2023-03-15T13:53:14;1.77;;;1.60;;
2313;SDS011;42279;51.388;7.000;2023-03-15T13:55:47;6.33;;;2.27;;
2313;SDS011;42279;51.388;7.000;2023-03-15T13:58:14;2.83;;;1.67;;
2313;SDS011;42279;51.388;7.000;2023-03-15T14:00:39;3.80;;;1.70;;
2313;SDS011;42279;51.388;7.000;2023-03-15T14:03:06;4.40;;;1.50;;
2313;SDS011;42279;51.388;7.000;2023-03-15T14:05:44;2.40;;;1.90;;
2313;SDS011;42279;51.388;7.000;2023-03-15T14:08:17;2.27;;;2.23;;
2313;SDS011;42279;51.388;7.000;2023-03-15T14:10:56;1.83;;;1.73;;
2313;SDS011;42279;51.388;7.000;2023-03-15T14:13:23;1.77;;;1.67;;
2313;SDS011;42279;51.388;7.000;2023-03-15T14:15:50;1.60;;;1.60;;
2313;SDS011;42279;51.388;7.000;2023-03-15T14:18:23;4.63;;;2.40;;
2313;SDS011;42279;51.388;7.000;2023-03-15T14:20:52;1.40;;;1.40;;
2313;SDS011;42279;51.388;7.000;2023-03-15T14:23:21;4.13;;;3.57;;
2313;SDS011;42279;51.388;7.000;2023-03-15T14:25:51;1.90;;;1.57;;
2313;SDS011;42279;51.388;7.000;2023-03-15T14:28:17;4.17;;;1.90;;
2313;SDS011;42279;51.388;7.000;2023-03-15T14:30:49;1.33;;;1.33;;
2313;SDS011;42279;51.388;7.000;2023-03-15T14:33:50;1.73;;;1.63;;
2313;SDS011;42279;51.388;7.000;2023-03-15T14:36:28;2.70;;;2.17;;
2313;SDS011;42279;51.388;7.000;2023-03-15T14:38:56;1.90;;;1.87;;
2313;SDS011;42279;51.388;7.000;2023-03-15T14:41:23;1.13;;;1.03;;
2313;SDS011;42279;51.388;7.000;2023-03-15T14:43:50;2.00;;;1.03;;
2313;SDS011;42279;51.388;7.000;2023-03-15T14:46:17;1.63;;;1.63;;
2313;SDS011;42279;51.388;7.000;2023-03-15T14:48:43;1.50;;;1.40;;
2313;SDS011;42279;51.388;7.000;2023-03-15T14:51:11;1.50;;;1.50;;
2313;SDS011;42279;51.388;7.000;2023-03-15T14:53:38;4.40;;;1.23;;
2313;SDS011;42279;51.388;7.000;2023-03-15T14:56:04;2.07;;;1.80;;
2313;SDS011;42279;51.388;7.000;2023-03-15T14:58:30;1.37;;;1.27;;
2313;SDS011;42279;51.388;7.000;2023-03-15T15:00:56;1.40;;;1.27;;
2313;SDS011;42279;51.388;7.000;2023-03-15T15:05:48;1.13;;;1.10;;
2313;SDS011;42279;51.388;7.000;2023-03-15T15:08:15;1.70;;;1.30;;
2313;SDS011;42279;51.388;7.000;2023-03-15T15:10:44;2.20;;;1.47;;
2313;SDS011;42279;51.388;7.000;2023-03-15T15:13:17;1.20;;;1.20;;
2313;SDS011;42279;51.388;7.000;2023-03-15T15:15:43;2.83;;;1.50;;
2313;SDS011;42279;51.388;7.000;2023-03-15T15:18:09;3.93;;;1.80;;
2313;SDS011;42279;51.388;7.000;2023-03-15T15:20:35;1.30;;;1.30;;
2313;SDS011;42279;51.388;7.000;2023-03-15T15:23:01;2.20;;;2.10;;
2313;SDS011;42279;51.388;7.000;2023-03-15T15:25:28;3.50;;;1.50;;
2313;SDS011;42279;51.388;7.000;2023-03-15T15:27:54;1.83;;;1.73;;
2313;SDS011;42279;51.388;7.000;2023-03-15T15:30:21;1.70;;;1.40;;
2313;SDS011;42279;51.388;7.000;2023-03-15T15:32:49;1.70;;;1.70;;
2313;SDS011;42279;51.388;7.000;2023-03-15T15:35:16;3.50;;;1.70;;
2313;SDS011;42279;51.388;7.000;2023-03-15T15:37:43;1.50;;;1.40;;
2313;SDS011;42279;51.388;7.000;2023-03-15T15:40:14;2.83;;;1.10;;
2313;SDS011;42279;51.388;7.000;2023-03-15T15:42:41;2.00;;;1.97;;
2313;SDS011;42279;51.388;7.000;2023-03-15T15:45:08;1.63;;;1.53;;
2313;SDS011;42279;51.388;7.000;2023-03-15T15:47:36;2.90;;;2.70;;
2313;SDS011;42279;51.388;7.000;2023-03-15T15:50:02;1.90;;;1.60;;
2313;SDS011;42279;51.388;7.000;2023-03-15T15:52:28;1.57;;;1.57;;
2313;SDS011;42279;51.388;7.000;2023-03-15T15:54:54;1.90;;;1.80;;
2313;SDS011;42279;51.388;7.000;2023-03-15T15:57:20;5.43;;;2.13;;
2313;SDS011;42279;51.388;7.000;2023-03-15T15:59:54;1.30;;;1.30;;